Time;durP1;ratioP1;P1;durP2;ratioP2;P2;SDS_P1;SDS_P2;PMS_P1;PMS_P2;Temp;Humidity;BMP_temperature;BMP_pressure;BME280_temperature;BME280_humidity;BME280_pressure;Samples;Min_cycle;Max_cycle;Signal;HPM_P1;HPM_P2
2023/03/24 00:01:50;;;;;;;6.18;4.20;;;;;;;11.38;100.00;99512.06;4993889;28;20117;-51
2023/03/24 00:04:15;;;;;;;7.78;4.60;;;;;;;11.41;100.00;99512.75;4973388;28;20042;-50
2023/03/24 00:06:42;;;;;;;6.63;4.70;;;;;;;11.43;100.00;99502.13;4976643;28;20049;-52
2023/03/24 00:09:07;;;;;;;9.00;4.80;;;;;;;11.45;100.00;99494.97;4976584;28;20137;-55
2023/03/24 00:11:33;;;;;;;5.20;3.92;;;;;;;11.45;100.00;99501.09;4991600;28;20030;-53
2023/03/24 00:13:59;;;;;;;9.18;4.38;;;;;;;11.05;100.00;99422.63;4976363;28;20438;-54
2023/03/24 00:16:25;;;;;;;7.43;4.20;;;;;;;11.35;100.00;99462.19;4975300;28;20388;-57
2023/03/24 00:18:51;;;;;;;6.68;4.47;;;;;;;11.20;100.00;99450.75;4993700;28;20133;-49
2023/03/24 00:21:20;;;;;;;7.07;4.30;;;;;;;11.47;100.00;99491.28;4994704;28;20030;-56
2023/03/24 00:23:48;;;;;;;7.90;3.70;;;;;;;11.20;100.00;99411.22;4995446;28;20034;-49
2023/03/24 00:26:14;;;;;;;9.88;4.75;;;;;;;11.48;100.00;99432.41;4994321;28;20034;-53
2023/03/24 00:28:42;;;;;;;6.55;3.60;;;;;;;11.47;100.00;99443.88;4995350;28;20035;-53
2023/03/24 00:31:08;;;;;;;6.85;3.78;;;;;;;11.63;100.00;99464.91;4995501;28;20065;-50
2023/03/24 00:33:35;;;;;;;6.25;3.60;;;;;;;11.55;100.00;99441.66;4973267;28;20031;-55
2023/03/24 00:36:05;;;;;;;8.70;3.33;;;;;;;11.68;100.00;99462.84;4975927;28;20038;-50
2023/03/24 00:38:33;;;;;;;6.93;3.55;;;;;;;11.73;100.00;99435.31;4976130;28;20035;-51
2023/03/24 00:40:59;;;;;;;3.80;3.17;;;;;;;11.79;100.00;99452.59;4974332;28;20049;-57
2023/03/24 00:43:24;;;;;;;5.53;3.35;;;;;;;11.76;100.00;99443.03;4974576;28;20042;-55
2023/03/24 00:45:57;;;;;;;5.45;3.85;;;;;;;11.76;100.00;99440.41;4975651;28;20031;-56
2023/03/24 00:48:23;;;;;;;6.28;3.67;;;;;;;11.76;100.00;99416.69;4975511;28;20047;-52
2023/03/24 00:50:50;;;;;;;5.03;2.90;;;;;;;11.70;100.00;99422.31;4981915;28;20173;-58
2023/03/24 00:53:16;;;;;;;4.65;3.22;;;;;;;11.62;100.00;99394.69;4977634;28;20422;-49
2023/03/24 00:55:45;;;;;;;8.80;3.65;;;;;;;11.74;100.00;99441.44;4975042;28;20105;-55
2023/03/24 00:58:16;;;;;;;3.55;3.25;;;;;;;11.74;100.00;99425.63;4994921;28;20486;-53
2023/03/24 01:00:42;;;;;;;4.47;3.35;;;;;;;11.67;100.00;99422.50;4994727;28;20363;-53
2023/03/24 01:03:08;;;;;;;6.45;3.20;;;;;;;11.67;100.00;99414.59;4977693;28;20119;-60
2023/03/24 01:05:35;;;;;;;6.40;3.80;;;;;;;11.64;100.00;99412.13;4977600;28;20433;-51
2023/03/24 01:08:02;;;;;;;5.75;3.30;;;;;;;11.70;100.00;99416.22;4977379;28;20380;-55
2023/03/24 01:10:28;;;;;;;3.88;3.10;;;;;;;11.72;100.00;99409.91;4977310;28;20030;-54
2023/03/24 01:12:58;;;;;;;5.82;3.40;;;;;;;11.76;100.00;99418.50;4971869;28;20116;-52
2023/03/24 01:15:32;;;;;;;4.60;3.42;;;;;;;11.74;100.00;99408.03;4976946;28;20042;-52
2023/03/24 01:18:00;;;;;;;7.05;3.45;;;;;;;11.31;100.00;99345.59;4994415;28;20042;-58
2023/03/24 01:20:26;;;;;;;6.72;3.88;;;;;;;11.36;100.00;99347.94;4977539;28;20540;-59
2023/03/24 01:22:52;;;;;;;8.07;3.97;;;;;;;11.30;100.00;99343.91;4976967;28;20121;-59
2023/03/24 01:25:21;;;;;;;5.75;3.65;;;;;;;11.36;100.00;99340.03;4994398;28;20046;-55
2023/03/24 01:27:48;;;;;;;3.80;3.03;;;;;;;11.74;100.00;99438.81;4994157;28;20030;-53
2023/03/24 01:30:18;;;;;;;7.22;3.90;;;;;;;11.80;100.00;99430.53;4975469;28;20038;-55
2023/03/24 01:32:43;;;;;;;5.18;3.47;;;;;;;11.75;100.00;99415.00;4994435;28;20034;-51
2023/03/24 01:35:10;;;;;;;5.10;3.90;;;;;;;11.71;100.00;99412.63;4994085;28;20501;-56
2023/03/24 01:37:36;;;;;;;6.75;3.85;;;;;;;11.74;100.00;99423.00;4994220;28;20041;-54
2023/03/24 01:40:05;;;;;;;5.32;2.72;;;;;;;11.80;100.00;99427.91;4994133;28;20038;-53
2023/03/24 01:42:30;;;;;;;6.65;3.20;;;;;;;11.80;100.00;99435.81;4994049;28;20034;-51
2023/03/24 01:45:00;;;;;;;8.27;3.33;;;;;;;11.80;100.00;99464.81;4976501;28;20045;-53
2023/03/24 01:47:25;;;;;;;7.18;3.00;;;;;;;11.75;100.00;99485.34;4991110;28;20030;-52
2023/03/24 01:49:56;;;;;;;8.73;2.85;;;;;;;11.66;100.00;99476.13;4993671;28;20144;-54
2023/03/24 01:52:34;;;;;;;12.65;2.88;;;;;;;11.56;100.00;99511.84;4993872;28;20096;-53
2023/03/24 01:55:06;;;;;;;8.38;2.53;;;;;;;11.40;100.00;99505.78;4976671;28;20031;-53
2023/03/24 01:57:35;;;;;;;6.95;2.33;;;;;;;11.03;100.00;99464.84;4976816;28;20474;-53
2023/03/24 02:00:04;;;;;;;7.93;2.05;;;;;;;10.93;100.00;99458.41;4976335;28;20359;-54
2023/03/24 02:02:33;;;;;;;8.35;2.72;;;;;;;11.18;100.00;99543.00;4976731;28;20116;-54
2023/03/24 02:05:02;;;;;;;9.90;2.05;;;;;;;11.08;100.00;99539.19;4988132;28;20536;-59
2023/03/24 02:07:32;;;;;;;5.32;2.03;;;;;;;11.01;100.00;99556.25;4993444;28;20034;-55
2023/03/24 02:09:58;;;;;;;7.95;2.13;;;;;;;10.93;100.00;99545.28;4993502;28;20042;-52
2023/03/24 02:12:24;;;;;;;9.93;2.35;;;;;;;10.52;100.00;99479.09;4976167;28;20481;-52
2023/03/24 02:14:50;;;;;;;7.93;1.85;;;;;;;10.58;100.00;99507.69;4993626;28;20045;-56
2023/03/24 02:17:18;;;;;;;7.53;2.10;;;;;;;10.84;100.00;99564.19;4976104;28;20409;-51
2023/03/24 02:20:04;;;;;;;8.68;2.78;;;;;;;10.80;100.00;99578.44;4991427;28;20042;-49
2023/03/24 02:22:41;;;;;;;8.00;2.00;;;;;;;10.74;100.00;99566.47;4991021;28;20034;-55
2023/03/24 02:25:20;;;;;;;8.68;2.28;;;;;;;10.35;100.00;99525.63;4975846;28;20424;-54
2023/03/24 02:28:08;;;;;;;6.72;2.28;;;;;;;10.70;100.00;99585.16;4975846;28;20166;-54
2023/03/24 02:30:42;;;;;;;8.02;2.22;;;;;;;10.67;100.00;99601.94;4975500;28;20037;-49
2023/03/24 02:33:32;;;;;;;11.35;2.33;;;;;;;10.65;100.00;99601.16;4993234;28;20113;-51
2023/03/24 02:36:01;;;;;;;11.95;2.95;;;;;;;10.61;100.00;99591.75;4975673;28;20034;-56
2023/03/24 02:38:26;;;;;;;9.02;3.05;;;;;;;10.59;100.00;99587.50;4989978;28;20097;-56
2023/03/24 02:41:07;;;;;;;12.30;3.28;;;;;;;10.50;100.00;99604.59;4992833;28;20038;-55
2023/03/24 02:44:05;;;;;;;4.80;1.92;;;;;;;10.45;100.00;99617.13;4993083;28;20070;-58
2023/03/24 02:46:43;;;;;;;16.88;3.75;;;;;;;10.02;100.00;99549.19;4969625;28;20042;-53
2023/03/24 02:49:31;;;;;;;16.58;3.33;;;;;;;10.35;100.00;99629.06;4977669;28;20074;-51
2023/03/24 02:52:03;;;;;;;12.32;2.40;;;;;;;10.21;100.00;99628.91;4991789;28;20031;-50
2023/03/24 02:54:57;;;;;;;8.90;2.67;;;;;;;10.08;100.00;99623.38;4990261;28;20405;-57
2023/03/24 02:57:32;;;;;;;12.30;2.85;;;;;;;10.01;100.00;99637.72;4991463;28;20562;-55
2023/03/24 03:00:21;;;;;;;17.08;3.15;;;;;;;9.93;100.00;99634.63;4992438;28;20061;-54
2023/03/24 03:02:56;;;;;;;9.45;3.00;;;;;;;9.83;100.00;99638.63;4991071;28;20389;-57
2023/03/24 03:05:36;;;;;;;11.90;3.03;;;;;;;9.79;100.00;99650.22;4975331;28;20046;-50
2023/03/24 03:08:05;;;;;;;20.83;3.95;;;;;;;9.49;100.00;99607.00;4991244;28;20049;-51
2023/03/24 03:10:34;;;;;;;15.45;3.97;;;;;;;9.83;100.00;99645.66;4973243;28;20053;-55
2023/03/24 03:13:05;;;;;;;14.98;3.58;;;;;;;9.80;100.00;99659.81;4990337;28;20120;-53
2023/03/24 03:15:34;;;;;;;16.40;3.80;;;;;;;9.76;100.00;99657.38;4992399;28;20122;-56
2023/03/24 03:18:07;;;;;;;14.55;3.58;;;;;;;9.71;100.00;99655.00;4991001;28;20165;-49
2023/03/24 03:20:38;;;;;;;15.35;3.97;;;;;;;9.34;100.00;99605.94;4991191;28;20030;-51
2023/03/24 03:23:07;;;;;;;15.45;3.58;;;;;;;9.67;100.00;99645.53;4975150;28;20391;-50
2023/03/24 03:25:37;;;;;;;16.17;3.53;;;;;;;9.63;100.00;99649.25;4974731;28;20057;-53
2023/03/24 03:28:04;;;;;;;13.00;3.13;;;;;;;9.29;100.00;99597.44;4989533;28;20030;-50
2023/03/24 03:30:41;;;;;;;13.85;3.28;;;;;;;9.37;100.00;99597.91;4991128;28;20022;-54
2023/03/24 03:33:23;;;;;;;15.43;4.00;;;;;;;9.76;100.00;99675.78;4991175;28;20486;-49
2023/03/24 03:35:56;;;;;;;11.00;2.88;;;;;;;9.41;100.00;99601.25;4991268;28;20273;-54
2023/03/24 03:38:28;;;;;;;14.25;3.38;;;;;;;9.78;100.00;99674.78;4991020;28;20497;-56
2023/03/24 03:40:59;;;;;;;12.85;3.10;;;;;;;9.81;100.00;99673.78;4992132;28;20041;-55
2023/03/24 03:43:25;;;;;;;13.43;3.38;;;;;;;9.46;100.00;99622.91;4990990;28;20081;-51
2023/03/24 03:45:51;;;;;;;15.40;2.78;;;;;;;9.80;100.00;99670.31;4986729;28;20031;-57
2023/03/24 03:48:17;;;;;;;16.90;3.65;;;;;;;9.75;100.00;99680.19;4974652;28;20115;-59
2023/03/24 03:50:43;;;;;;;17.60;4.18;;;;;;;9.82;100.00;99688.63;4990600;28;20054;-52
2023/03/24 03:53:08;;;;;;;19.27;4.85;;;;;;;9.47;100.00;99627.25;4990656;28;20031;-57
2023/03/24 03:55:34;;;;;;;17.70;4.22;;;;;;;9.78;100.00;99682.66;4990870;28;20046;-48
2023/03/24 03:58:02;;;;;;;22.05;4.05;;;;;;;9.74;100.00;99681.13;4992368;28;20085;-51
2023/03/24 04:00:29;;;;;;;15.35;3.38;;;;;;;9.66;100.00;99692.91;4990720;28;20339;-53
2023/03/24 04:03:17;;;;;;;19.73;3.35;;;;;;;9.55;100.00;99681.13;4988859;28;20122;-52
2023/03/24 04:05:49;;;;;;;14.43;3.50;;;;;;;9.55;100.00;99702.13;4991766;28;20058;-49
2023/03/24 04:08:44;;;;;;;20.73;4.50;;;;;;;9.51;100.00;99695.34;4991679;28;20034;-53
2023/03/24 04:11:42;;;;;;;16.27;4.22;;;;;;;9.50;100.00;99687.50;4991064;28;20106;-49
2023/03/24 04:14:52;;;;;;;16.50;4.07;;;;;;;9.50;100.00;99704.13;4970629;28;20174;-48
2023/03/24 04:17:29;;;;;;;21.27;4.18;;;;;;;9.52;100.00;99711.94;4950742;29;20065;-49
2023/03/24 04:20:01;;;;;;;21.35;3.50;;;;;;;9.49;100.00;99712.91;4980872;28;20137;-48
2023/03/24 04:22:48;;;;;;;17.77;4.35;;;;;;;9.15;100.00;99655.00;4990737;28;20040;-52
2023/03/24 04:25:57;;;;;;;19.27;4.32;;;;;;;9.37;100.00;99713.47;4990744;28;20030;-50
2023/03/24 04:28:33;;;;;;;22.20;4.40;;;;;;;9.26;100.00;99731.50;4978628;28;20038;-56
2023/03/24 04:31:06;;;;;;;26.77;4.95;;;;;;;9.21;100.00;99749.22;4992761;28;20411;-55
2023/03/24 04:34:11;;;;;;;26.75;4.88;;;;;;;9.13;100.00;99732.09;4995743;28;20089;-48
2023/03/24 04:36:41;;;;;;;23.15;4.68;;;;;;;8.69;100.00;99665.81;4952686;29;20047;-54
2023/03/24 04:39:17;;;;;;;21.40;4.85;;;;;;;9.11;100.00;99753.16;4954206;29;20101;-53
2023/03/24 04:41:44;;;;;;;29.15;5.47;;;;;;;9.07;100.00;99741.13;4977997;28;20378;-54
2023/03/24 04:44:10;;;;;;;33.13;4.97;;;;;;;8.97;100.00;99734.53;4995479;28;20042;-58
2023/03/24 04:46:36;;;;;;;27.67;5.13;;;;;;;8.97;100.00;99738.03;4993742;28;20077;-57
2023/03/24 04:49:02;;;;;;;20.88;4.40;;;;;;;8.80;100.00;99716.03;4993928;28;20050;-54
2023/03/24 04:51:28;;;;;;;31.67;6.25;;;;;;;8.98;100.00;99749.38;4995183;28;20065;-54
2023/03/24 04:53:53;;;;;;;29.55;6.15;;;;;;;8.95;100.00;99744.25;4991893;28;20394;-57
2023/03/24 04:56:47;;;;;;;30.77;6.20;;;;;;;8.95;100.00;99762.63;4994648;28;20046;-55
2023/03/24 04:59:14;;;;;;;27.98;5.07;;;;;;;8.75;100.00;99736.38;4993813;28;20031;-57
2023/03/24 05:01:40;;;;;;;26.85;4.97;;;;;;;8.89;100.00;99768.13;4995041;28;20045;-51
2023/03/24 05:04:05;;;;;;;27.30;6.18;;;;;;;8.94;100.00;99774.03;4994765;28;20544;-55
2023/03/24 05:06:31;;;;;;;29.42;5.63;;;;;;;8.61;100.00;99709.88;4994390;28;20076;-54
2023/03/24 05:08:58;;;;;;;24.55;5.13;;;;;;;8.96;100.00;99756.47;4992771;28;20038;-50
2023/03/24 05:11:24;;;;;;;29.45;6.03;;;;;;;9.08;100.00;99784.78;4993751;28;20503;-60
2023/03/24 05:13:50;;;;;;;30.85;5.50;;;;;;;8.83;100.00;99756.13;4994890;28;20172;-49
2023/03/24 05:16:15;;;;;;;30.42;5.50;;;;;;;9.11;100.00;99763.66;4994737;28;20134;-53
2023/03/24 05:18:41;;;;;;;24.20;5.50;;;;;;;9.25;100.00;99789.34;4994869;28;20093;-58
2023/03/24 05:21:06;;;;;;;32.88;6.78;;;;;;;8.87;100.00;99714.88;4993106;28;20034;-50
2023/03/24 05:23:32;;;;;;;18.38;4.47;;;;;;;8.87;100.00;99734.06;4994712;28;20041;-53
2023/03/24 05:25:57;;;;;;;23.20;4.78;;;;;;;9.24;100.00;99782.38;4993405;28;20034;-55
2023/03/24 05:28:22;;;;;;;31.98;6.00;;;;;;;8.93;100.00;99723.31;4991129;28;20042;-54
2023/03/24 05:30:48;;;;;;;23.50;5.60;;;;;;;9.42;100.00;99807.84;4993003;28;20077;-51
2023/03/24 05:33:13;;;;;;;24.33;4.47;;;;;;;9.46;100.00;99807.63;4994201;28;20035;-54
2023/03/24 05:35:38;;;;;;;24.85;5.18;;;;;;;9.51;100.00;99808.28;4994148;28;20184;-53
2023/03/24 05:38:04;;;;;;;23.58;4.75;;;;;;;9.17;100.00;99742.41;4994130;28;20039;-54
2023/03/24 05:40:29;;;;;;;20.38;4.60;;;;;;;9.55;100.00;99801.97;4992977;28;20034;-56
2023/03/24 05:42:54;;;;;;;29.27;5.72;;;;;;;9.42;100.00;99773.69;4991095;28;20048;-54
2023/03/24 05:45:20;;;;;;;24.52;5.15;;;;;;;9.66;100.00;99824.28;4993308;28;20026;-50
2023/03/24 05:47:45;;;;;;;27.15;5.45;;;;;;;9.39;100.00;99768.56;4993988;28;20038;-58
2023/03/24 05:50:11;;;;;;;24.33;5.00;;;;;;;9.72;100.00;99830.09;4993884;28;20058;-55
2023/03/24 05:52:36;;;;;;;26.00;5.50;;;;;;;9.55;100.00;99794.09;4994003;28;20046;-56
2023/03/24 05:55:01;;;;;;;20.40;4.57;;;;;;;9.72;100.00;99837.16;4993912;28;20290;-50
2023/03/24 05:57:29;;;;;;;18.58;4.28;;;;;;;9.68;100.00;99820.66;4976228;28;20038;-57
2023/03/24 05:59:55;;;;;;;24.50;5.50;;;;;;;9.66;100.00;99822.50;4991334;28;20039;-54
2023/03/24 06:02:21;;;;;;;26.15;5.00;;;;;;;9.76;100.00;99825.56;4992905;28;20034;-54
2023/03/24 06:04:47;;;;;;;20.00;4.85;;;;;;;9.83;100.00;99856.78;4993584;28;20089;-50
2023/03/24 06:07:13;;;;;;;16.75;4.47;;;;;;;9.28;100.00;99762.94;4993473;28;20038;-55
2023/03/24 06:09:41;;;;;;;17.60;4.00;;;;;;;9.47;100.00;99783.06;4993636;28;20069;-54
2023/03/24 06:12:07;;;;;;;19.35;4.45;;;;;;;9.88;100.00;99846.06;4993737;28;20469;-53
2023/03/24 06:14:33;;;;;;;21.15;4.50;;;;;;;9.50;100.00;99779.44;4976092;28;20061;-54
2023/03/24 06:16:58;;;;;;;19.95;4.03;;;;;;;9.51;100.00;99783.78;4993503;28;20034;-59
2023/03/24 06:19:26;;;;;;;24.13;4.45;;;;;;;9.50;100.00;99796.06;4987858;28;20038;-52
2023/03/24 06:21:52;;;;;;;22.48;5.03;;;;;;;9.85;100.00;99862.81;4976058;28;20038;-56
2023/03/24 06:24:18;;;;;;;20.30;4.05;;;;;;;9.41;100.00;99775.47;4993246;28;20165;-54
2023/03/24 06:26:44;;;;;;;25.35;4.45;;;;;;;9.47;100.00;99797.97;4993554;28;20035;-54
2023/03/24 06:29:11;;;;;;;19.10;4.43;;;;;;;9.90;100.00;99873.09;4993285;28;20041;-55
2023/03/24 06:31:36;;;;;;;24.77;4.57;;;;;;;9.53;100.00;99809.06;4992960;28;20081;-56
2023/03/24 06:34:05;;;;;;;19.42;4.10;;;;;;;9.97;100.00;99875.41;4975464;28;20042;-59
2023/03/24 06:36:33;;;;;;;22.08;4.72;;;;;;;10.00;100.00;99884.94;4990091;28;20042;-51
2023/03/24 06:38:59;;;;;;;24.67;4.80;;;;;;;10.02;100.00;99878.69;4975628;28;20549;-55
2023/03/24 06:41:24;;;;;;;25.70;5.10;;;;;;;10.02;100.00;99894.44;4992840;28;20034;-51
2023/03/24 06:43:50;;;;;;;30.05;5.30;;;;;;;9.99;100.00;99870.94;4975888;28;20093;-50
2023/03/24 06:46:15;;;;;;;21.58;4.55;;;;;;;9.69;100.00;99824.97;4992883;28;20410;-55
2023/03/24 06:48:40;;;;;;;23.88;4.93;;;;;;;9.45;100.00;99791.94;4992670;28;20481;-55
2023/03/24 06:51:06;;;;;;;15.15;4.15;;;;;;;10.15;100.00;99902.69;4992547;28;20069;-55
2023/03/24 06:53:32;;;;;;;22.60;5.07;;;;;;;9.82;100.00;99856.84;4989254;28;20387;-52
2023/03/24 06:55:57;;;;;;;24.83;5.03;;;;;;;10.20;100.00;99895.44;4992856;28;20030;-54
2023/03/24 06:58:22;;;;;;;23.60;4.47;;;;;;;10.27;100.00;99915.28;4975600;28;20057;-59
2023/03/24 07:00:49;;;;;;;23.30;5.00;;;;;;;10.20;100.00;99897.19;4994912;28;20026;-57
2023/03/24 07:03:15;;;;;;;21.98;4.10;;;;;;;9.92;100.00;99842.38;4963344;28;20069;-54
2023/03/24 07:05:42;;;;;;;21.20;5.07;;;;;;;10.04;100.00;99858.41;4988707;28;20045;-54
2023/03/24 07:08:08;;;;;;;19.55;4.57;;;;;;;10.04;100.00;99841.81;4988272;28;20034;-53
2023/03/24 07:10:34;;;;;;;20.88;4.57;;;;;;;10.50;100.00;99904.53;4991974;28;20056;-56
2023/03/24 07:13:02;;;;;;;16.20;4.70;;;;;;;10.55;100.00;99899.06;4992510;28;20105;-58
2023/03/24 07:15:27;;;;;;;21.63;5.15;;;;;;;10.40;100.00;99874.31;4974864;28;20355;-54
2023/03/24 07:17:53;;;;;;;18.60;4.13;;;;;;;10.69;100.00;99920.31;4958476;28;20031;-54
2023/03/24 07:20:19;;;;;;;14.93;4.47;;;;;;;10.86;100.00;99943.22;4959384;28;20351;-53
2023/03/24 07:22:44;;;;;;;21.58;4.70;;;;;;;10.78;100.00;99914.59;4955251;28;20122;-51
2023/03/24 07:25:09;;;;;;;17.20;4.35;;;;;;;11.09;100.00;99951.69;4991228;28;20113;-53
2023/03/24 07:27:36;;;;;;;15.88;3.85;;;;;;;11.16;100.00;99941.72;4974472;28;20117;-54
2023/03/24 07:30:03;;;;;;;14.82;4.45;;;;;;;11.26;100.00;99957.03;4992328;28;20085;-49
2023/03/24 07:32:29;;;;;;;17.90;3.83;;;;;;;11.42;100.00;99965.00;4992584;28;20042;-52
2023/03/24 07:34:56;;;;;;;17.38;4.45;;;;;;;11.33;100.00;99968.09;4974790;28;20038;-58
2023/03/24 07:37:21;;;;;;;18.67;5.00;;;;;;;11.46;100.00;99977.13;4974849;28;20038;-55
2023/03/24 07:39:47;;;;;;;17.17;3.78;;;;;;;11.09;100.00;99899.03;4990987;28;20480;-55
2023/03/24 07:42:12;;;;;;;19.38;4.93;;;;;;;11.20;100.00;99912.53;4988137;28;20560;-54
2023/03/24 07:44:37;;;;;;;18.30;4.38;;;;;;;11.60;100.00;99972.00;4969387;28;20038;-50
2023/03/24 07:47:03;;;;;;;16.13;5.13;;;;;;;10.63;100.00;99820.59;4969186;28;20437;-48
2023/03/24 07:49:28;;;;;;;21.98;5.00;;;;;;;11.67;100.00;99972.56;4991997;28;20070;-47
2023/03/24 07:51:53;;;;;;;14.85;3.75;;;;;;;11.59;100.00;99974.69;4992250;28;20129;-57
2023/03/24 07:54:19;;;;;;;19.73;3.97;;;;;;;11.73;100.00;99965.19;4992062;28;20076;-58
2023/03/24 07:56:44;;;;;;;13.98;3.72;;;;;;;11.78;100.00;99973.75;4992355;28;20117;-49
2023/03/24 07:59:10;;;;;;;16.25;3.88;;;;;;;11.81;100.00;99978.88;4958382;28;20036;-49
2023/03/24 08:01:36;;;;;;;16.08;3.97;;;;;;;11.74;100.00;99914.19;4991573;28;20038;-52
2023/03/24 08:04:03;;;;;;;13.68;3.45;;;;;;;12.75;100.00;99976.50;4972372;28;20077;-50
2023/03/24 08:06:28;;;;;;;16.95;4.00;;;;;;;13.08;100.00;100001.97;4995106;28;20042;-51
2023/03/24 08:08:54;;;;;;;13.50;3.35;;;;;;;13.14;100.00;99917.09;4995993;28;20069;-52
2023/03/24 08:11:20;;;;;;;13.63;3.75;;;;;;;13.96;100.00;100003.88;4977965;28;20035;-56
2023/03/24 08:13:45;;;;;;;9.93;2.90;;;;;;;13.89;100.00;99965.47;4995558;28;20084;-49
2023/03/24 08:16:11;;;;;;;13.57;3.40;;;;;;;14.20;100.00;99998.91;4995672;28;20445;-56
2023/03/24 08:18:36;;;;;;;15.95;3.45;;;;;;;14.66;100.00;100015.50;4995701;28;20206;-52
2023/03/24 08:21:02;;;;;;;15.55;3.35;;;;;;;14.96;100.00;100013.59;4990119;28;20038;-55
2023/03/24 08:23:27;;;;;;;18.92;3.65;;;;;;;15.41;100.00;100019.56;4995924;28;20073;-52
2023/03/24 08:25:53;;;;;;;13.45;3.35;;;;;;;15.51;100.00;100010.91;4978561;28;20453;-51
2023/03/24 08:28:18;;;;;;;10.80;3.17;;;;;;;15.23;100.00;99971.22;4995331;28;20497;-54
2023/03/24 08:30:44;;;;;;;15.75;3.55;;;;;;;15.38;100.00;99980.78;4992253;28;20157;-51
2023/03/24 08:33:11;;;;;;;12.77;2.90;;;;;;;15.45;100.00;99978.59;4995405;28;20229;-53
2023/03/24 08:35:39;;;;;;;18.42;3.38;;;;;;;15.81;100.00;100029.28;4962053;28;20041;-55
2023/03/24 08:38:06;;;;;;;13.40;3.58;;;;;;;15.71;100.00;100041.44;4995464;28;20043;-52
2023/03/24 08:40:33;;;;;;;13.05;2.75;;;;;;;14.91;100.00;99994.50;4995384;28;20565;-56
2023/03/24 08:43:01;;;;;;;12.27;3.38;;;;;;;14.52;100.00;100042.00;4994996;28;20038;-54
2023/03/24 08:45:29;;;;;;;13.23;2.58;;;;;;;13.90;100.00;100046.56;4993357;28;20030;-53
2023/03/24 08:47:57;;;;;;;13.75;2.83;;;;;;;13.10;100.00;100010.69;4994420;28;20050;-52
2023/03/24 08:50:24;;;;;;;13.05;2.92;;;;;;;12.86;100.00;100049.84;4995304;28;20042;-52
2023/03/24 08:52:50;;;;;;;11.90;2.85;;;;;;;12.65;100.00;100049.19;4994972;28;20117;-53
2023/03/24 08:55:17;;;;;;;9.18;2.50;;;;;;;12.53;100.00;100056.91;4976693;28;20105;-54
2023/03/24 08:57:42;;;;;;;10.80;2.65;;;;;;;12.56;100.00;100049.69;4977343;28;20030;-55
2023/03/24 09:00:18;;;;;;;9.05;2.35;;;;;;;12.88;100.00;100051.44;4993446;28;20042;-54
2023/03/24 09:02:52;;;;;;;14.02;3.33;;;;;;;13.02;100.00;100061.25;4976062;28;20058;-51
2023/03/24 09:05:19;;;;;;;11.82;2.63;;;;;;;12.92;100.00;100068.84;4975855;28;20049;-49
2023/03/24 09:07:45;;;;;;;13.18;3.13;;;;;;;12.68;100.00;100069.31;4975852;28;20057;-52
2023/03/24 09:10:11;;;;;;;11.77;3.25;;;;;;;12.40;100.00;100054.06;4974678;28;20026;-53
2023/03/24 09:12:37;;;;;;;16.73;3.03;;;;;;;12.03;100.00;99999.69;4974738;28;20034;-52
2023/03/24 09:15:04;;;;;;;10.18;2.72;;;;;;;12.00;100.00;100018.31;4974625;28;20109;-48
2023/03/24 09:17:29;;;;;;;16.15;3.50;;;;;;;12.75;100.00;100070.69;4973446;28;20037;-50
2023/03/24 09:19:55;;;;;;;14.40;3.40;;;;;;;13.46;100.00;100067.63;4974676;28;20042;-54
2023/03/24 09:22:20;;;;;;;13.98;4.03;;;;;;;14.04;100.00;100074.84;4991749;28;20034;-51
2023/03/24 09:24:47;;;;;;;12.73;3.10;;;;;;;14.61;100.00;100084.66;4992342;28;20058;-54
2023/03/24 09:27:14;;;;;;;14.98;3.08;;;;;;;14.51;100.00;100043.78;4974601;28;20042;-55
2023/03/24 09:29:39;;;;;;;15.57;2.95;;;;;;;14.47;100.00;100107.63;4977079;28;20081;-50
2023/03/24 09:32:05;;;;;;;12.20;3.45;;;;;;;13.56;100.00;100025.66;4993970;28;20046;-49
2023/03/24 09:34:31;;;;;;;13.05;3.53;;;;;;;13.09;100.00;100041.53;4994737;28;20136;-52
2023/03/24 09:36:56;;;;;;;15.13;4.30;;;;;;;13.08;100.00;100092.66;4976868;28;20045;-53
2023/03/24 09:39:22;;;;;;;12.48;3.20;;;;;;;13.01;100.00;100104.50;4976825;28;20042;-55
2023/03/24 09:41:49;;;;;;;17.35;4.13;;;;;;;13.35;100.00;100034.78;4993791;28;20097;-55
2023/03/24 09:44:50;;;;;;;10.52;3.38;;;;;;;14.80;100.00;100107.38;4993913;28;20117;-53
2023/03/24 09:47:38;;;;;;;10.85;3.45;;;;;;;15.56;100.00;100108.75;4992866;28;20069;-58
2023/03/24 09:50:08;;;;;;;13.27;3.63;;;;;;;15.82;100.00;100105.25;4981670;28;20489;-56
2023/03/24 09:52:39;;;;;;;13.73;2.92;;;;;;;16.73;100.00;100102.59;4992345;28;20030;-57
2023/03/24 09:55:09;;;;;;;8.68;3.13;;;;;;;16.94;100.00;100102.94;4992627;28;20077;-56
2023/03/24 09:57:37;;;;;;;11.03;3.30;;;;;;;16.74;100.00;100056.50;4992535;28;20089;-55
2023/03/24 10:00:19;;;;;;;14.73;3.50;;;;;;;17.68;100.00;100113.56;4975808;28;20847;-53
2023/03/24 10:02:45;;;;;;;11.27;3.63;;;;;;;18.49;100.00;100066.56;4992283;28;20030;-54
2023/03/24 10:05:16;;;;;;;12.18;3.92;;;;;;;19.25;100.00;100089.88;4992372;28;20026;-50
2023/03/24 10:07:50;;;;;;;9.50;3.03;;;;;;;20.00;100.00;100154.09;4993431;28;20033;-58
2023/03/24 10:10:52;;;;;;;10.20;2.97;;;;;;;20.15;100.00;100116.28;4992206;28;20493;-52
2023/03/24 10:13:21;;;;;;;9.90;3.17;;;;;;;19.69;100.00;100112.19;4992161;28;20084;-53
2023/03/24 10:15:53;;;;;;;11.50;3.10;;;;;;;18.94;100.00;100133.31;4992403;28;20034;-53
2023/03/24 10:18:27;;;;;;;11.77;2.67;;;;;;;17.59;100.00;100084.09;4991891;28;20450;-55
2023/03/24 10:21:21;;;;;;;10.52;2.88;;;;;;;16.56;100.00;100123.31;4992167;28;20026;-59
2023/03/24 10:24:07;;;;;;;9.85;3.08;;;;;;;15.68;100.00;100114.13;4987962;28;20042;-50
2023/03/24 10:26:41;;;;;;;11.45;3.50;;;;;;;15.12;100.00;100107.09;4993270;28;20438;-55
2023/03/24 10:29:12;;;;;;;14.65;2.95;;;;;;;15.04;100.00;100127.06;4990435;28;20030;-59
2023/03/24 10:31:39;;;;;;;10.40;3.15;;;;;;;14.48;100.00;100051.06;4991000;28;20031;-55
2023/03/24 10:34:09;;;;;;;8.27;2.22;;;;;;;15.06;100.00;100057.09;4974480;28;20035;-55
2023/03/24 10:36:37;;;;;;;13.05;2.40;;;;;;;15.48;100.00;100072.13;4991894;28;20113;-53
2023/03/24 10:39:02;;;;;;;13.55;3.53;;;;;;;15.48;100.00;100113.69;4992440;28;20181;-57
2023/03/24 10:41:28;;;;;;;14.82;3.47;;;;;;;15.44;100.00;100136.88;4990754;28;20111;-53
2023/03/24 10:43:55;;;;;;;9.25;2.53;;;;;;;16.03;100.00;100106.50;4990391;28;20034;-50
2023/03/24 10:46:23;;;;;;;12.80;3.35;;;;;;;16.88;100.00;100084.75;4973781;28;20509;-51
2023/03/24 10:49:16;;;;;;;12.25;3.13;;;;;;;18.36;100.00;100127.06;4989288;28;20406;-55
2023/03/24 10:51:50;;;;;;;12.07;3.30;;;;;;;19.55;100.00;100134.66;4986853;28;20061;-57
2023/03/24 10:54:25;;;;;;;10.88;3.20;;;;;;;19.70;100.00;100140.59;4991239;28;20554;-55
2023/03/24 10:56:56;;;;;;;9.10;3.03;;;;;;;19.26;100.00;100144.09;4990464;28;20113;-52
2023/03/24 10:59:27;;;;;;;15.10;3.97;;;;;;;19.45;100.00;100136.34;4991169;28;20038;-52
2023/03/24 11:02:08;;;;;;;;;;;;;;;18.40;100.00;100083.22;4990207;28;20032;-51
2023/03/24 11:04:33;;;;;;;11.17;2.73;;;;;;;18.32;100.00;100146.91;4989666;28;19921;-56
2023/03/24 11:07:03;;;;;;;14.77;3.92;;;;;;;17.01;100.00;100072.31;4989409;28;20038;-54
2023/03/24 11:09:31;;;;;;;13.73;4.35;;;;;;;17.21;100.00;100129.38;4990003;28;20053;-55
2023/03/24 11:12:02;;;;;;;12.32;2.85;;;;;;;17.55;100.00;100075.47;4989450;28;20069;-53
2023/03/24 11:14:27;;;;;;;10.30;2.85;;;;;;;18.48;100.00;100091.53;4989594;28;20034;-51
2023/03/24 11:17:09;;;;;;;10.00;2.58;;;;;;;18.84;100.00;100081.63;4991343;28;20045;-49
2023/03/24 11:19:35;;;;;;;6.45;2.38;;;;;;;19.48;100.00;100158.31;4989412;28;20040;-51
2023/03/24 11:22:02;;;;;;;11.40;2.65;;;;;;;19.84;100.00;100148.31;4990861;28;20434;-53
2023/03/24 11:24:28;;;;;;;10.75;2.47;;;;;;;20.21;100.00;100090.88;4989801;28;20605;-55
2023/03/24 11:27:00;;;;;;;9.25;2.42;;;;;;;20.79;100.00;100145.63;4989541;28;20154;-54
2023/03/24 11:29:29;;;;;;;6.15;1.92;;;;;;;20.57;100.00;100160.00;4989460;28;20045;-55
2023/03/24 11:32:00;;;;;;;6.40;2.42;;;;;;;19.28;100.00;100096.78;4989361;28;20679;-54